sensor_id;sensor_type;location;lat;lon;timestamp;temperature;humidity
43991;DHT22;29654;50.784;20.604;2022-10-13T00:02:34;11.60;52.70
43991;DHT22;29654;50.784;20.604;2022-10-13T00:07:37;11.50;52.70
43991;DHT22;29654;50.784;20.604;2022-10-13T00:12:41;11.50;52.70
43991;DHT22;29654;50.784;20.604;2022-10-13T00:17:45;11.40;52.80
43991;DHT22;29654;50.784;20.604;2022-10-13T00:22:48;11.30;52.80
43991;DHT22;29654;50.784;20.604;2022-10-13T00:27:52;11.20;52.70
43991;DHT22;29654;50.784;20.604;2022-10-13T00:32:57;11.20;52.80
43991;DHT22;29654;50.784;20.604;2022-10-13T00:38:00;11.10;52.90
43991;DHT22;29654;50.784;20.604;2022-10-13T00:43:14;11.00;52.80
43991;DHT22;29654;50.784;20.604;2022-10-13T00:48:21;11.00;52.90
43991;DHT22;29654;50.784;20.604;2022-10-13T00:53:30;10.90;52.90
43991;DHT22;29654;50.784;20.604;2022-10-13T00:58:38;10.80;52.90
43991;DHT22;29654;50.784;20.604;2022-10-13T01:03:42;10.70;52.80
43991;DHT22;29654;50.784;20.604;2022-10-13T01:08:45;10.60;52.80
43991;DHT22;29654;50.784;20.604;2022-10-13T01:13:52;10.60;53.00
43991;DHT22;29654;50.784;20.604;2022-10-13T01:19:14;10.50;53.10
43991;DHT22;29654;50.784;20.604;2022-10-13T01:24:40;10.40;53.20
43991;DHT22;29654;50.784;20.604;2022-10-13T01:30:07;10.40;53.20
43991;DHT22;29654;50.784;20.604;2022-10-13T01:35:19;10.30;53.40
43991;DHT22;29654;50.784;20.604;2022-10-13T01:40:31;10.30;53.30
43991;DHT22;29654;50.784;20.604;2022-10-13T01:45:43;10.20;53.20
43991;DHT22;29654;50.784;20.604;2022-10-13T01:50:50;10.20;53.40
43991;DHT22;29654;50.784;20.604;2022-10-13T01:55:55;10.10;53.40
43991;DHT22;29654;50.784;20.604;2022-10-13T02:06:38;10.10;53.50
43991;DHT22;29654;50.784;20.604;2022-10-13T02:11:48;10.10;53.40
43991;DHT22;29654;50.784;20.604;2022-10-13T02:17:00;10.10;53.40
43991;DHT22;29654;50.784;20.604;2022-10-13T02:22:05;10.00;53.40
43991;DHT22;29654;50.784;20.604;2022-10-13T02:27:09;10.00;53.50
43991;DHT22;29654;50.784;20.604;2022-10-13T02:32:14;9.90;53.40
43991;DHT22;29654;50.784;20.604;2022-10-13T02:37:21;9.90;53.50
43991;DHT22;29654;50.784;20.604;2022-10-13T02:42:31;9.90;53.60
43991;DHT22;29654;50.784;20.604;2022-10-13T02:47:36;9.90;53.50
43991;DHT22;29654;50.784;20.604;2022-10-13T02:52:39;9.90;53.60
43991;DHT22;29654;50.784;20.604;2022-10-13T02:57:42;9.80;53.40
43991;DHT22;29654;50.784;20.604;2022-10-13T03:02:46;9.80;53.50
43991;DHT22;29654;50.784;20.604;2022-10-13T03:07:48;9.80;53.40
43991;DHT22;29654;50.784;20.604;2022-10-13T03:12:51;9.70;53.40
43991;DHT22;29654;50.784;20.604;2022-10-13T03:17:56;9.60;53.40
43991;DHT22;29654;50.784;20.604;2022-10-13T03:22:59;9.60;53.40
43991;DHT22;29654;50.784;20.604;2022-10-13T03:28:02;9.50;53.40
43991;DHT22;29654;50.784;20.604;2022-10-13T03:33:06;9.50;53.50
43991;DHT22;29654;50.784;20.604;2022-10-13T03:38:09;9.50;53.50
43991;DHT22;29654;50.784;20.604;2022-10-13T03:43:13;9.50;53.60
43991;DHT22;29654;50.784;20.604;2022-10-13T03:48:17;9.40;53.50
43991;DHT22;29654;50.784;20.604;2022-10-13T03:53:19;9.50;53.70
43991;DHT22;29654;50.784;20.604;2022-10-13T03:58:23;9.30;53.70
43991;DHT22;29654;50.784;20.604;2022-10-13T04:03:30;9.30;53.70
43991;DHT22;29654;50.784;20.604;2022-10-13T04:08:33;9.30;53.90
43991;DHT22;29654;50.784;20.604;2022-10-13T04:13:36;9.30;53.90
43991;DHT22;29654;50.784;20.604;2022-10-13T04:18:40;9.20;53.90
43991;DHT22;29654;50.784;20.604;2022-10-13T04:23:43;9.30;54.00
43991;DHT22;29654;50.784;20.604;2022-10-13T04:28:46;9.30;54.00
43991;DHT22;29654;50.784;20.604;2022-10-13T04:33:52;9.30;54.00
43991;DHT22;29654;50.784;20.604;2022-10-13T04:38:55;9.30;54.10
43991;DHT22;29654;50.784;20.604;2022-10-13T04:43:58;9.30;54.10
43991;DHT22;29654;50.784;20.604;2022-10-13T04:49:03;9.30;54.40
43991;DHT22;29654;50.784;20.604;2022-10-13T04:54:08;9.30;54.60
43991;DHT22;29654;50.784;20.604;2022-10-13T04:59:11;9.40;54.40
43991;DHT22;29654;50.784;20.604;2022-10-13T05:04:15;9.40;54.10
43991;DHT22;29654;50.784;20.604;2022-10-13T05:09:17;9.40;54.00
43991;DHT22;29654;50.784;20.604;2022-10-13T05:14:22;9.40;54.10
43991;DHT22;29654;50.784;20.604;2022-10-13T05:19:26;9.40;54.20
43991;DHT22;29654;50.784;20.604;2022-10-13T05:24:30;9.40;54.10
43991;DHT22;29654;50.784;20.604;2022-10-13T05:29:37;9.40;54.20
43991;DHT22;29654;50.784;20.604;2022-10-13T05:34:41;9.40;54.40
43991;DHT22;29654;50.784;20.604;2022-10-13T05:39:44;9.40;54.50
43991;DHT22;29654;50.784;20.604;2022-10-13T05:44:46;9.50;54.60
43991;DHT22;29654;50.784;20.604;2022-10-13T05:49:51;9.60;54.90
43991;DHT22;29654;50.784;20.604;2022-10-13T05:54:56;9.70;55.10
43991;DHT22;29654;50.784;20.604;2022-10-13T06:00:03;9.80;55.40
43991;DHT22;29654;50.784;20.604;2022-10-13T06:05:18;10.00;55.70
43991;DHT22;29654;50.784;20.604;2022-10-13T06:10:25;10.20;55.90
43991;DHT22;29654;50.784;20.604;2022-10-13T06:15:28;10.30;55.90
43991;DHT22;29654;50.784;20.604;2022-10-13T06:20:33;10.50;55.90
43991;DHT22;29654;50.784;20.604;2022-10-13T06:25:36;10.70;56.10
43991;DHT22;29654;50.784;20.604;2022-10-13T06:30:38;10.90;56.10
43991;DHT22;29654;50.784;20.604;2022-10-13T06:35:44;11.10;56.10
43991;DHT22;29654;50.784;20.604;2022-10-13T06:40:47;11.30;56.20
43991;DHT22;29654;50.784;20.604;2022-10-13T06:45:50;11.50;56.20
43991;DHT22;29654;50.784;20.604;2022-10-13T06:50:54;11.70;56.20
43991;DHT22;29654;50.784;20.604;2022-10-13T06:55:57;11.90;56.20
43991;DHT22;29654;50.784;20.604;2022-10-13T07:01:00;12.20;56.20
43991;DHT22;29654;50.784;20.604;2022-10-13T07:06:05;12.40;56.10
43991;DHT22;29654;50.784;20.604;2022-10-13T07:11:10;12.60;56.20
43991;DHT22;29654;50.784;20.604;2022-10-13T07:16:14;12.80;56.10
43991;DHT22;29654;50.784;20.604;2022-10-13T07:21:18;13.00;56.00
43991;DHT22;29654;50.784;20.604;2022-10-13T07:26:21;13.20;55.90
43991;DHT22;29654;50.784;20.604;2022-10-13T07:31:24;13.30;55.80
43991;DHT22;29654;50.784;20.604;2022-10-13T07:36:29;13.50;55.70
43991;DHT22;29654;50.784;20.604;2022-10-13T07:41:32;13.70;55.70
43991;DHT22;29654;50.784;20.604;2022-10-13T07:46:34;13.90;55.60
43991;DHT22;29654;50.784;20.604;2022-10-13T07:51:39;14.10;55.60
43991;DHT22;29654;50.784;20.604;2022-10-13T07:56:42;14.30;55.60
43991;DHT22;29654;50.784;20.604;2022-10-13T08:01:45;14.50;55.60
43991;DHT22;29654;50.784;20.604;2022-10-13T08:06:50;14.70;55.50
43991;DHT22;29654;50.784;20.604;2022-10-13T08:11:53;14.90;55.60
43991;DHT22;29654;50.784;20.604;2022-10-13T08:16:56;15.10;55.60
43991;DHT22;29654;50.784;20.604;2022-10-13T08:22:00;15.40;55.40
43991;DHT22;29654;50.784;20.604;2022-10-13T08:27:03;15.70;55.20
43991;DHT22;29654;50.784;20.604;2022-10-13T08:32:09;15.90;54.80
43991;DHT22;29654;50.784;20.604;2022-10-13T08:37:15;16.10;54.50
43991;DHT22;29654;50.784;20.604;2022-10-13T08:42:20;16.30;54.20
43991;DHT22;29654;50.784;20.604;2022-10-13T08:47:32;16.50;54.10
43991;DHT22;29654;50.784;20.604;2022-10-13T08:52:52;16.80;53.70
43991;DHT22;29654;50.784;20.604;2022-10-13T08:57:58;17.00;53.20
43991;DHT22;29654;50.784;20.604;2022-10-13T09:03:16;17.10;53.40
43991;DHT22;29654;50.784;20.604;2022-10-13T09:08:26;17.30;52.90
43991;DHT22;29654;50.784;20.604;2022-10-13T09:13:31;17.50;52.80
43991;DHT22;29654;50.784;20.604;2022-10-13T09:18:34;17.70;52.60
43991;DHT22;29654;50.784;20.604;2022-10-13T09:23:42;17.80;52.20
43991;DHT22;29654;50.784;20.604;2022-10-13T09:28:45;17.90;51.80
43991;DHT22;29654;50.784;20.604;2022-10-13T09:33:57;18.10;51.60
43991;DHT22;29654;50.784;20.604;2022-10-13T09:39:09;18.20;50.70
43991;DHT22;29654;50.784;20.604;2022-10-13T09:44:16;18.40;50.80
43991;DHT22;29654;50.784;20.604;2022-10-13T09:49:29;18.50;50.90
43991;DHT22;29654;50.784;20.604;2022-10-13T09:54:46;18.70;50.20
43991;DHT22;29654;50.784;20.604;2022-10-13T09:59:52;18.90;50.00
43991;DHT22;29654;50.784;20.604;2022-10-13T10:05:01;19.00;50.30
43991;DHT22;29654;50.784;20.604;2022-10-13T10:10:20;19.10;49.40
43991;DHT22;29654;50.784;20.604;2022-10-13T10:15:35;19.20;49.00
43991;DHT22;29654;50.784;20.604;2022-10-13T10:20:53;19.20;49.30
43991;DHT22;29654;50.784;20.604;2022-10-13T10:26:03;19.30;48.70
43991;DHT22;29654;50.784;20.604;2022-10-13T10:31:18;19.50;48.60
43991;DHT22;29654;50.784;20.604;2022-10-13T10:36:33;19.50;48.40
43991;DHT22;29654;50.784;20.604;2022-10-13T10:41:47;19.50;48.10
43991;DHT22;29654;50.784;20.604;2022-10-13T10:46:54;19.50;47.90
43991;DHT22;29654;50.784;20.604;2022-10-13T10:52:06;19.60;48.10
43991;DHT22;29654;50.784;20.604;2022-10-13T10:57:31;19.60;47.90
43991;DHT22;29654;50.784;20.604;2022-10-13T11:02:43;19.60;47.70
43991;DHT22;29654;50.784;20.604;2022-10-13T11:07:57;19.60;47.70
43991;DHT22;29654;50.784;20.604;2022-10-13T11:13:25;19.60;47.00
43991;DHT22;29654;50.784;20.604;2022-10-13T11:24:45;19.70;47.10
43991;DHT22;29654;50.784;20.604;2022-10-13T11:29:54;19.90;46.90
43991;DHT22;29654;50.784;20.604;2022-10-13T11:34:58;19.90;47.50
43991;DHT22;29654;50.784;20.604;2022-10-13T11:40:27;20.00;47.70
43991;DHT22;29654;50.784;20.604;2022-10-13T11:46:10;20.10;46.60
43991;DHT22;29654;50.784;20.604;2022-10-13T11:51:29;20.30;46.60
43991;DHT22;29654;50.784;20.604;2022-10-13T11:56:43;20.40;46.70
43991;DHT22;29654;50.784;20.604;2022-10-13T12:01:54;20.50;46.20
43991;DHT22;29654;50.784;20.604;2022-10-13T12:07:00;20.60;46.50
43991;DHT22;29654;50.784;20.604;2022-10-13T12:12:12;20.60;46.20
43991;DHT22;29654;50.784;20.604;2022-10-13T12:17:22;20.60;46.00
43991;DHT22;29654;50.784;20.604;2022-10-13T12:22:29;20.70;46.20
43991;DHT22;29654;50.784;20.604;2022-10-13T12:27:41;20.70;46.50
43991;DHT22;29654;50.784;20.604;2022-10-13T12:32:51;20.80;45.50
43991;DHT22;29654;50.784;20.604;2022-10-13T12:37:56;20.80;45.80
43991;DHT22;29654;50.784;20.604;2022-10-13T12:42:59;20.80;46.00
43991;DHT22;29654;50.784;20.604;2022-10-13T12:48:28;20.80;46.00
43991;DHT22;29654;50.784;20.604;2022-10-13T12:53:31;20.80;44.90
43991;DHT22;29654;50.784;20.604;2022-10-13T12:58:34;20.80;45.80
43991;DHT22;29654;50.784;20.604;2022-10-13T13:03:39;20.70;46.00
43991;DHT22;29654;50.784;20.604;2022-10-13T13:08:44;20.80;45.80
43991;DHT22;29654;50.784;20.604;2022-10-13T13:13:47;20.80;46.00
43991;DHT22;29654;50.784;20.604;2022-10-13T13:18:52;20.90;45.80
43991;DHT22;29654;50.784;20.604;2022-10-13T13:23:55;20.90;45.70
43991;DHT22;29654;50.784;20.604;2022-10-13T13:28:59;20.90;45.60
43991;DHT22;29654;50.784;20.604;2022-10-13T13:34:03;20.90;45.60
43991;DHT22;29654;50.784;20.604;2022-10-13T13:39:07;20.90;45.60
43991;DHT22;29654;50.784;20.604;2022-10-13T13:44:17;20.90;45.60
43991;DHT22;29654;50.784;20.604;2022-10-13T13:49:23;20.90;45.60
43991;DHT22;29654;50.784;20.604;2022-10-13T13:54:26;20.90;45.50
43991;DHT22;29654;50.784;20.604;2022-10-13T13:59:30;20.90;45.60
43991;DHT22;29654;50.784;20.604;2022-10-13T14:04:35;20.90;45.60
43991;DHT22;29654;50.784;20.604;2022-10-13T14:09:39;20.90;45.20
43991;DHT22;29654;50.784;20.604;2022-10-13T14:14:44;20.90;45.50
43991;DHT22;29654;50.784;20.604;2022-10-13T14:19:49;20.90;45.30
43991;DHT22;29654;50.784;20.604;2022-10-13T14:24:51;20.90;45.30
43991;DHT22;29654;50.784;20.604;2022-10-13T14:29:55;20.80;45.30
43991;DHT22;29654;50.784;20.604;2022-10-13T14:35:00;20.70;45.40
43991;DHT22;29654;50.784;20.604;2022-10-13T14:40:03;20.60;45.60
43991;DHT22;29654;50.784;20.604;2022-10-13T14:45:07;20.50;45.70
43991;DHT22;29654;50.784;20.604;2022-10-13T14:50:11;20.60;45.80
43991;DHT22;29654;50.784;20.604;2022-10-13T14:55:14;20.50;45.60
43991;DHT22;29654;50.784;20.604;2022-10-13T15:00:17;20.50;45.70
43991;DHT22;29654;50.784;20.604;2022-10-13T15:05:21;20.50;45.80
43991;DHT22;29654;50.784;20.604;2022-10-13T15:10:26;20.40;45.80
43991;DHT22;29654;50.784;20.604;2022-10-13T15:15:30;20.30;45.70
43991;DHT22;29654;50.784;20.604;2022-10-13T15:20:35;20.20;45.90
43991;DHT22;29654;50.784;20.604;2022-10-13T15:25:38;20.10;46.10
43991;DHT22;29654;50.784;20.604;2022-10-13T15:30:46;20.00;46.20
43991;DHT22;29654;50.784;20.604;2022-10-13T15:35:52;19.80;46.30
43991;DHT22;29654;50.784;20.604;2022-10-13T15:40:58;19.60;46.40
43991;DHT22;29654;50.784;20.604;2022-10-13T15:46:03;19.40;46.60
43991;DHT22;29654;50.784;20.604;2022-10-13T15:51:12;19.20;46.80
43991;DHT22;29654;50.784;20.604;2022-10-13T15:56:16;19.00;47.10
43991;DHT22;29654;50.784;20.604;2022-10-13T16:01:18;18.80;47.10
43991;DHT22;29654;50.784;20.604;2022-10-13T16:06:22;18.60;47.30
43991;DHT22;29654;50.784;20.604;2022-10-13T16:11:26;18.40;47.40
43991;DHT22;29654;50.784;20.604;2022-10-13T16:16:29;18.10;47.50
43991;DHT22;29654;50.784;20.604;2022-10-13T16:21:33;17.90;47.50
43991;DHT22;29654;50.784;20.604;2022-10-13T16:26:38;17.70;47.60
43991;DHT22;29654;50.784;20.604;2022-10-13T16:31:41;17.50;47.50
43991;DHT22;29654;50.784;20.604;2022-10-13T16:36:48;17.20;47.80
43991;DHT22;29654;50.784;20.604;2022-10-13T16:41:51;17.00;48.10
43991;DHT22;29654;50.784;20.604;2022-10-13T16:46:58;16.80;48.10
43991;DHT22;29654;50.784;20.604;2022-10-13T16:52:06;16.60;48.40
43991;DHT22;29654;50.784;20.604;2022-10-13T16:57:08;16.40;48.60
43991;DHT22;29654;50.784;20.604;2022-10-13T17:02:13;16.30;48.90
43991;DHT22;29654;50.784;20.604;2022-10-13T17:07:17;16.10;49.20
43991;DHT22;29654;50.784;20.604;2022-10-13T17:12:19;16.00;49.20
43991;DHT22;29654;50.784;20.604;2022-10-13T17:17:22;15.90;49.20
43991;DHT22;29654;50.784;20.604;2022-10-13T17:22:27;15.70;49.20
43991;DHT22;29654;50.784;20.604;2022-10-13T17:27:29;15.60;49.30
43991;DHT22;29654;50.784;20.604;2022-10-13T17:32:36;15.40;49.30
43991;DHT22;29654;50.784;20.604;2022-10-13T17:37:40;15.30;49.70
43991;DHT22;29654;50.784;20.604;2022-10-13T17:42:46;15.20;50.30
43991;DHT22;29654;50.784;20.604;2022-10-13T17:47:49;15.10;49.60
43991;DHT22;29654;50.784;20.604;2022-10-13T17:52:57;14.90;49.60
43991;DHT22;29654;50.784;20.604;2022-10-13T17:58:00;14.80;49.90
43991;DHT22;29654;50.784;20.604;2022-10-13T18:03:02;14.70;49.80
43991;DHT22;29654;50.784;20.604;2022-10-13T18:08:07;14.60;49.90
43991;DHT22;29654;50.784;20.604;2022-10-13T18:13:12;14.50;50.00
43991;DHT22;29654;50.784;20.604;2022-10-13T18:18:18;14.30;50.00
43991;DHT22;29654;50.784;20.604;2022-10-13T18:23:25;14.20;50.10
43991;DHT22;29654;50.784;20.604;2022-10-13T18:28:29;14.10;50.20
43991;DHT22;29654;50.784;20.604;2022-10-13T18:33:32;14.00;50.30
43991;DHT22;29654;50.784;20.604;2022-10-13T18:38:36;13.90;50.30
43991;DHT22;29654;50.784;20.604;2022-10-13T18:43:39;13.80;50.40
43991;DHT22;29654;50.784;20.604;2022-10-13T18:48:42;13.80;50.50
43991;DHT22;29654;50.784;20.604;2022-10-13T18:53:47;13.60;50.60
43991;DHT22;29654;50.784;20.604;2022-10-13T18:58:53;13.60;50.80
43991;DHT22;29654;50.784;20.604;2022-10-13T19:03:56;13.50;50.70
43991;DHT22;29654;50.784;20.604;2022-10-13T19:09:02;13.50;50.80
43991;DHT22;29654;50.784;20.604;2022-10-13T19:14:11;13.40;50.90
43991;DHT22;29654;50.784;20.604;2022-10-13T19:19:14;13.30;51.00
43991;DHT22;29654;50.784;20.604;2022-10-13T19:24:18;13.30;51.10
43991;DHT22;29654;50.784;20.604;2022-10-13T19:29:21;13.20;51.10
43991;DHT22;29654;50.784;20.604;2022-10-13T19:34:24;13.10;51.10
43991;DHT22;29654;50.784;20.604;2022-10-13T19:39:28;13.10;51.10
43991;DHT22;29654;50.784;20.604;2022-10-13T19:44:31;13.00;51.10
43991;DHT22;29654;50.784;20.604;2022-10-13T19:49:34;12.90;51.20
43991;DHT22;29654;50.784;20.604;2022-10-13T19:54:38;12.80;51.30
43991;DHT22;29654;50.784;20.604;2022-10-13T19:59:40;12.80;51.50
43991;DHT22;29654;50.784;20.604;2022-10-13T20:04:43;12.70;51.50
43991;DHT22;29654;50.784;20.604;2022-10-13T20:09:47;12.70;51.50
43991;DHT22;29654;50.784;20.604;2022-10-13T20:14:50;12.70;51.60
43991;DHT22;29654;50.784;20.604;2022-10-13T20:19:53;12.70;51.70
43991;DHT22;29654;50.784;20.604;2022-10-13T20:24:57;12.60;51.70
43991;DHT22;29654;50.784;20.604;2022-10-13T20:30:00;12.70;51.90
43991;DHT22;29654;50.784;20.604;2022-10-13T20:35:03;12.60;51.90
43991;DHT22;29654;50.784;20.604;2022-10-13T20:40:09;12.70;51.90
43991;DHT22;29654;50.784;20.604;2022-10-13T20:45:12;12.70;52.00
43991;DHT22;29654;50.784;20.604;2022-10-13T20:50:15;12.60;51.90
43991;DHT22;29654;50.784;20.604;2022-10-13T20:55:19;12.60;51.90
43991;DHT22;29654;50.784;20.604;2022-10-13T21:00:22;12.70;52.00
43991;DHT22;29654;50.784;20.604;2022-10-13T21:05:26;12.60;51.90
43991;DHT22;29654;50.784;20.604;2022-10-13T21:10:31;12.60;51.80
43991;DHT22;29654;50.784;20.604;2022-10-13T21:15:38;12.60;51.80
43991;DHT22;29654;50.784;20.604;2022-10-13T21:20:41;12.60;51.80
43991;DHT22;29654;50.784;20.604;2022-10-13T21:25:46;12.50;51.80
43991;DHT22;29654;50.784;20.604;2022-10-13T21:30:59;12.50;51.80
43991;DHT22;29654;50.784;20.604;2022-10-13T21:36:07;12.50;52.10
43991;DHT22;29654;50.784;20.604;2022-10-13T21:41:13;12.50;52.00
43991;DHT22;29654;50.784;20.604;2022-10-13T21:46:18;12.40;51.90
43991;DHT22;29654;50.784;20.604;2022-10-13T21:51:27;12.40;51.90
43991;DHT22;29654;50.784;20.604;2022-10-13T21:56:33;12.40;51.90
43991;DHT22;29654;50.784;20.604;2022-10-13T22:01:37;12.30;51.90
43991;DHT22;29654;50.784;20.604;2022-10-13T22:06:42;12.30;51.80
43991;DHT22;29654;50.784;20.604;2022-10-13T22:11:46;12.30;52.20
43991;DHT22;29654;50.784;20.604;2022-10-13T22:16:50;12.20;52.10
43991;DHT22;29654;50.784;20.604;2022-10-13T22:21:53;12.20;52.20
43991;DHT22;29654;50.784;20.604;2022-10-13T22:26:58;12.20;52.10
43991;DHT22;29654;50.784;20.604;2022-10-13T22:32:01;12.20;52.10
43991;DHT22;29654;50.784;20.604;2022-10-13T22:37:04;12.10;52.00
43991;DHT22;29654;50.784;20.604;2022-10-13T22:42:08;12.10;52.10
43991;DHT22;29654;50.784;20.604;2022-10-13T22:47:10;12.10;52.40
43991;DHT22;29654;50.784;20.604;2022-10-13T22:52:13;12.10;52.50
43991;DHT22;29654;50.784;20.604;2022-10-13T22:57:17;12.10;52.70
43991;DHT22;29654;50.784;20.604;2022-10-13T23:02:20;12.20;53.10
43991;DHT22;29654;50.784;20.604;2022-10-13T23:07:23;12.20;53.20
43991;DHT22;29654;50.784;20.604;2022-10-13T23:12:27;12.30;53.40
43991;DHT22;29654;50.784;20.604;2022-10-13T23:17:30;12.40;53.70
43991;DHT22;29654;50.784;20.604;2022-10-13T23:22:32;12.60;53.70
43991;DHT22;29654;50.784;20.604;2022-10-13T23:27:36;12.70;53.80
43991;DHT22;29654;50.784;20.604;2022-10-13T23:32:39;12.80;54.00
43991;DHT22;29654;50.784;20.604;2022-10-13T23:37:42;12.90;53.90
43991;DHT22;29654;50.784;20.604;2022-10-13T23:42:46;13.10;54.00
43991;DHT22;29654;50.784;20.604;2022-10-13T23:47:49;13.20;54.00
43991;DHT22;29654;50.784;20.604;2022-10-13T23:52:54;13.30;54.00
43991;DHT22;29654;50.784;20.604;2022-10-13T23:57:59;13.40;54.00
